sensor_id;sensor_type;location;lat;lon;timestamp;temperature;humidity
12254;DHT22;6189;52.526;13.390;2022-11-03T00:02:41;11.00;99.90
12254;DHT22;6189;52.526;13.390;2022-11-03T00:05:26;11.00;99.90
12254;DHT22;6189;52.526;13.390;2022-11-03T00:08:30;11.10;99.90
12254;DHT22;6189;52.526;13.390;2022-11-03T00:11:18;11.10;99.90
12254;DHT22;6189;52.526;13.390;2022-11-03T00:14:03;11.10;99.90
12254;DHT22;6189;52.526;13.390;2022-11-03T00:16:49;11.10;99.90
12254;DHT22;6189;52.526;13.390;2022-11-03T00:19:34;11.10;99.90
12254;DHT22;6189;52.526;13.390;2022-11-03T00:22:20;11.10;99.90
12254;DHT22;6189;52.526;13.390;2022-11-03T00:25:06;11.20;99.90
12254;DHT22;6189;52.526;13.390;2022-11-03T00:27:56;11.10;99.90
12254;DHT22;6189;52.526;13.390;2022-11-03T00:30:41;11.10;99.90
12254;DHT22;6189;52.526;13.390;2022-11-03T00:33:30;11.10;99.90
12254;DHT22;6189;52.526;13.390;2022-11-03T00:36:18;11.10;99.90
12254;DHT22;6189;52.526;13.390;2022-11-03T00:39:04;11.00;99.90
12254;DHT22;6189;52.526;13.390;2022-11-03T00:41:50;11.00;99.90
12254;DHT22;6189;52.526;13.390;2022-11-03T00:44:37;10.90;99.90
12254;DHT22;6189;52.526;13.390;2022-11-03T00:47:23;10.90;99.90
12254;DHT22;6189;52.526;13.390;2022-11-03T00:50:08;10.80;99.90
12254;DHT22;6189;52.526;13.390;2022-11-03T00:52:54;10.80;99.90
12254;DHT22;6189;52.526;13.390;2022-11-03T00:55:39;10.80;99.90
12254;DHT22;6189;52.526;13.390;2022-11-03T00:58:25;10.80;99.90
12254;DHT22;6189;52.526;13.390;2022-11-03T01:01:13;10.80;99.90
12254;DHT22;6189;52.526;13.390;2022-11-03T01:03:58;10.90;99.90
12254;DHT22;6189;52.526;13.390;2022-11-03T01:07:03;10.90;99.90
12254;DHT22;6189;52.526;13.390;2022-11-03T01:09:48;10.90;99.90
12254;DHT22;6189;52.526;13.390;2022-11-03T01:12:34;10.90;99.90
12254;DHT22;6189;52.526;13.390;2022-11-03T01:15:19;10.80;99.90
12254;DHT22;6189;52.526;13.390;2022-11-03T01:18:05;10.70;99.90
12254;DHT22;6189;52.526;13.390;2022-11-03T01:20:54;10.50;99.90
12254;DHT22;6189;52.526;13.390;2022-11-03T01:23:39;10.40;99.90
12254;DHT22;6189;52.526;13.390;2022-11-03T01:26:25;10.20;99.90
12254;DHT22;6189;52.526;13.390;2022-11-03T01:29:10;10.20;99.90
12254;DHT22;6189;52.526;13.390;2022-11-03T01:31:56;10.10;99.90
12254;DHT22;6189;52.526;13.390;2022-11-03T01:34:43;10.10;99.90
12254;DHT22;6189;52.526;13.390;2022-11-03T01:37:29;10.10;99.90
12254;DHT22;6189;52.526;13.390;2022-11-03T01:40:14;10.10;99.90
12254;DHT22;6189;52.526;13.390;2022-11-03T01:43:14;10.10;99.90
12254;DHT22;6189;52.526;13.390;2022-11-03T01:46:03;10.10;99.90
12254;DHT22;6189;52.526;13.390;2022-11-03T01:48:58;10.00;99.90
12254;DHT22;6189;52.526;13.390;2022-11-03T01:51:49;10.00;99.90
12254;DHT22;6189;52.526;13.390;2022-11-03T01:54:38;9.90;99.90
12254;DHT22;6189;52.526;13.390;2022-11-03T01:57:31;9.80;99.90
12254;DHT22;6189;52.526;13.390;2022-11-03T02:00:18;9.70;99.90
12254;DHT22;6189;52.526;13.390;2022-11-03T02:03:04;9.60;99.90
12254;DHT22;6189;52.526;13.390;2022-11-03T02:05:51;9.60;99.90
12254;DHT22;6189;52.526;13.390;2022-11-03T02:08:42;9.70;99.90
12254;DHT22;6189;52.526;13.390;2022-11-03T02:11:30;9.70;99.90
12254;DHT22;6189;52.526;13.390;2022-11-03T02:14:37;9.70;99.90
12254;DHT22;6189;52.526;13.390;2022-11-03T02:17:26;9.60;99.90
12254;DHT22;6189;52.526;13.390;2022-11-03T02:20:15;9.60;99.90
12254;DHT22;6189;52.526;13.390;2022-11-03T02:23:26;9.50;99.90
12254;DHT22;6189;52.526;13.390;2022-11-03T02:26:18;9.60;99.90
12254;DHT22;6189;52.526;13.390;2022-11-03T02:29:03;9.60;99.90
12254;DHT22;6189;52.526;13.390;2022-11-03T02:31:52;9.70;99.90
12254;DHT22;6189;52.526;13.390;2022-11-03T02:34:46;9.60;99.90
12254;DHT22;6189;52.526;13.390;2022-11-03T02:37:35;9.60;99.90
12254;DHT22;6189;52.526;13.390;2022-11-03T02:40:26;9.60;99.90
12254;DHT22;6189;52.526;13.390;2022-11-03T02:43:14;9.50;99.90
12254;DHT22;6189;52.526;13.390;2022-11-03T02:46:03;9.50;99.90
12254;DHT22;6189;52.526;13.390;2022-11-03T02:48:48;9.30;99.90
12254;DHT22;6189;52.526;13.390;2022-11-03T02:51:34;9.20;99.90
12254;DHT22;6189;52.526;13.390;2022-11-03T02:54:22;9.10;99.90
12254;DHT22;6189;52.526;13.390;2022-11-03T02:57:14;9.00;99.90
12254;DHT22;6189;52.526;13.390;2022-11-03T03:00:04;9.10;99.90
12254;DHT22;6189;52.526;13.390;2022-11-03T03:02:54;9.10;99.90
12254;DHT22;6189;52.526;13.390;2022-11-03T03:05:41;9.10;99.90
12254;DHT22;6189;52.526;13.390;2022-11-03T03:08:29;9.10;99.90
12254;DHT22;6189;52.526;13.390;2022-11-03T03:11:15;9.20;99.90
12254;DHT22;6189;52.526;13.390;2022-11-03T03:14:22;9.10;99.90
12254;DHT22;6189;52.526;13.390;2022-11-03T03:17:13;9.10;99.90
12254;DHT22;6189;52.526;13.390;2022-11-03T03:20:04;9.10;99.90
12254;DHT22;6189;52.526;13.390;2022-11-03T03:22:55;9.20;99.90
12254;DHT22;6189;52.526;13.390;2022-11-03T03:25:44;9.20;99.90
12254;DHT22;6189;52.526;13.390;2022-11-03T03:28:34;9.30;99.90
12254;DHT22;6189;52.526;13.390;2022-11-03T03:31:23;9.20;99.90
12254;DHT22;6189;52.526;13.390;2022-11-03T03:34:12;9.30;99.90
12254;DHT22;6189;52.526;13.390;2022-11-03T03:37:00;9.30;99.90
12254;DHT22;6189;52.526;13.390;2022-11-03T03:39:48;9.30;99.90
12254;DHT22;6189;52.526;13.390;2022-11-03T03:42:37;9.40;99.90
12254;DHT22;6189;52.526;13.390;2022-11-03T03:45:23;9.40;99.90
12254;DHT22;6189;52.526;13.390;2022-11-03T03:48:10;9.30;99.90
12254;DHT22;6189;52.526;13.390;2022-11-03T03:50:59;9.20;99.90
12254;DHT22;6189;52.526;13.390;2022-11-03T03:53:49;9.20;99.90
12254;DHT22;6189;52.526;13.390;2022-11-03T03:56:39;9.20;99.90
12254;DHT22;6189;52.526;13.390;2022-11-03T03:59:25;9.20;99.90
12254;DHT22;6189;52.526;13.390;2022-11-03T04:02:11;9.20;99.90
12254;DHT22;6189;52.526;13.390;2022-11-03T04:04:56;9.30;99.90
12254;DHT22;6189;52.526;13.390;2022-11-03T04:07:44;9.30;99.90
12254;DHT22;6189;52.526;13.390;2022-11-03T04:10:32;9.40;99.90
12254;DHT22;6189;52.526;13.390;2022-11-03T04:13:17;9.30;99.90
12254;DHT22;6189;52.526;13.390;2022-11-03T04:16:21;9.30;99.90
12254;DHT22;6189;52.526;13.390;2022-11-03T04:19:24;9.40;99.90
12254;DHT22;6189;52.526;13.390;2022-11-03T04:22:30;9.30;99.90
12254;DHT22;6189;52.526;13.390;2022-11-03T04:25:16;9.30;99.90
12254;DHT22;6189;52.526;13.390;2022-11-03T04:28:07;9.30;99.90
12254;DHT22;6189;52.526;13.390;2022-11-03T04:30:55;9.20;99.90
12254;DHT22;6189;52.526;13.390;2022-11-03T04:33:42;9.10;99.90
12254;DHT22;6189;52.526;13.390;2022-11-03T04:36:28;9.10;99.90
12254;DHT22;6189;52.526;13.390;2022-11-03T04:39:15;9.10;99.90
12254;DHT22;6189;52.526;13.390;2022-11-03T04:42:13;9.10;99.90
12254;DHT22;6189;52.526;13.390;2022-11-03T04:45:01;9.10;99.90
12254;DHT22;6189;52.526;13.390;2022-11-03T04:47:58;9.20;99.90
12254;DHT22;6189;52.526;13.390;2022-11-03T04:50:45;9.10;99.90
12254;DHT22;6189;52.526;13.390;2022-11-03T04:53:32;9.20;99.90
12254;DHT22;6189;52.526;13.390;2022-11-03T04:56:20;9.10;99.90
12254;DHT22;6189;52.526;13.390;2022-11-03T04:59:10;9.00;99.90
12254;DHT22;6189;52.526;13.390;2022-11-03T05:01:56;9.00;99.90
12254;DHT22;6189;52.526;13.390;2022-11-03T05:04:41;8.90;99.90
12254;DHT22;6189;52.526;13.390;2022-11-03T05:07:31;8.90;99.90
12254;DHT22;6189;52.526;13.390;2022-11-03T05:10:19;8.90;99.90
12254;DHT22;6189;52.526;13.390;2022-11-03T05:13:11;8.80;99.90
12254;DHT22;6189;52.526;13.390;2022-11-03T05:16:04;8.80;99.90
12254;DHT22;6189;52.526;13.390;2022-11-03T05:18:51;8.70;99.90
12254;DHT22;6189;52.526;13.390;2022-11-03T05:21:36;8.60;99.90
12254;DHT22;6189;52.526;13.390;2022-11-03T05:24:21;8.50;99.90
12254;DHT22;6189;52.526;13.390;2022-11-03T05:27:13;8.70;99.90
12254;DHT22;6189;52.526;13.390;2022-11-03T05:30:00;8.80;99.90
12254;DHT22;6189;52.526;13.390;2022-11-03T05:32:47;8.80;99.90
12254;DHT22;6189;52.526;13.390;2022-11-03T05:35:33;8.80;99.90
12254;DHT22;6189;52.526;13.390;2022-11-03T05:38:20;8.80;99.90
12254;DHT22;6189;52.526;13.390;2022-11-03T05:41:14;8.80;99.90
12254;DHT22;6189;52.526;13.390;2022-11-03T05:44:02;8.90;99.90
12254;DHT22;6189;52.526;13.390;2022-11-03T05:46:56;8.90;99.90
12254;DHT22;6189;52.526;13.390;2022-11-03T05:49:43;9.00;99.90
12254;DHT22;6189;52.526;13.390;2022-11-03T05:52:28;9.00;99.90
12254;DHT22;6189;52.526;13.390;2022-11-03T05:55:21;9.00;99.90
12254;DHT22;6189;52.526;13.390;2022-11-03T05:58:15;9.00;99.90
12254;DHT22;6189;52.526;13.390;2022-11-03T06:01:09;9.10;99.90
12254;DHT22;6189;52.526;13.390;2022-11-03T06:03:58;9.10;99.90
12254;DHT22;6189;52.526;13.390;2022-11-03T06:06:48;9.00;99.90
12254;DHT22;6189;52.526;13.390;2022-11-03T06:09:34;9.00;99.90
12254;DHT22;6189;52.526;13.390;2022-11-03T06:12:21;9.00;99.90
12254;DHT22;6189;52.526;13.390;2022-11-03T06:15:08;8.90;99.90
12254;DHT22;6189;52.526;13.390;2022-11-03T06:18:13;9.00;99.90
12254;DHT22;6189;52.526;13.390;2022-11-03T06:21:06;9.00;99.90
12254;DHT22;6189;52.526;13.390;2022-11-03T06:23:54;9.00;99.90
12254;DHT22;6189;52.526;13.390;2022-11-03T06:26:41;9.10;99.90
12254;DHT22;6189;52.526;13.390;2022-11-03T06:29:30;9.10;99.90
12254;DHT22;6189;52.526;13.390;2022-11-03T06:32:17;9.10;99.90
12254;DHT22;6189;52.526;13.390;2022-11-03T06:35:03;9.10;99.90
12254;DHT22;6189;52.526;13.390;2022-11-03T06:37:49;9.20;99.90
12254;DHT22;6189;52.526;13.390;2022-11-03T06:40:36;9.20;99.90
12254;DHT22;6189;52.526;13.390;2022-11-03T06:43:23;9.20;99.90
12254;DHT22;6189;52.526;13.390;2022-11-03T06:46:14;9.10;99.90
12254;DHT22;6189;52.526;13.390;2022-11-03T06:49:01;9.10;99.90
12254;DHT22;6189;52.526;13.390;2022-11-03T06:52:05;9.10;99.90
12254;DHT22;6189;52.526;13.390;2022-11-03T06:55:12;9.20;99.90
12254;DHT22;6189;52.526;13.390;2022-11-03T06:58:09;9.20;99.90
12254;DHT22;6189;52.526;13.390;2022-11-03T07:00:59;9.20;99.90
12254;DHT22;6189;52.526;13.390;2022-11-03T07:03:46;9.20;99.90
12254;DHT22;6189;52.526;13.390;2022-11-03T07:06:34;9.20;99.90
12254;DHT22;6189;52.526;13.390;2022-11-03T07:09:23;9.20;99.90
12254;DHT22;6189;52.526;13.390;2022-11-03T07:12:14;9.10;99.90
12254;DHT22;6189;52.526;13.390;2022-11-03T07:15:02;9.20;99.90
12254;DHT22;6189;52.526;13.390;2022-11-03T07:17:49;9.20;99.90
12254;DHT22;6189;52.526;13.390;2022-11-03T07:20:34;9.20;99.90
12254;DHT22;6189;52.526;13.390;2022-11-03T07:23:22;9.20;99.90
12254;DHT22;6189;52.526;13.390;2022-11-03T07:26:10;9.20;99.90
12254;DHT22;6189;52.526;13.390;2022-11-03T07:28:55;9.10;99.90
12254;DHT22;6189;52.526;13.390;2022-11-03T07:31:42;9.10;99.90
12254;DHT22;6189;52.526;13.390;2022-11-03T07:34:31;9.10;99.90
12254;DHT22;6189;52.526;13.390;2022-11-03T07:37:19;9.10;99.90
12254;DHT22;6189;52.526;13.390;2022-11-03T07:40:11;9.10;99.90
12254;DHT22;6189;52.526;13.390;2022-11-03T07:42:58;9.10;99.90
12254;DHT22;6189;52.526;13.390;2022-11-03T07:45:47;9.20;99.90
12254;DHT22;6189;52.526;13.390;2022-11-03T07:48:37;9.30;99.90
12254;DHT22;6189;52.526;13.390;2022-11-03T07:51:26;9.40;99.90
12254;DHT22;6189;52.526;13.390;2022-11-03T07:54:15;9.40;99.90
12254;DHT22;6189;52.526;13.390;2022-11-03T07:57:06;9.40;99.90
12254;DHT22;6189;52.526;13.390;2022-11-03T07:59:57;9.50;99.90
12254;DHT22;6189;52.526;13.390;2022-11-03T08:02:47;9.60;99.90
12254;DHT22;6189;52.526;13.390;2022-11-03T08:05:36;9.60;99.90
12254;DHT22;6189;52.526;13.390;2022-11-03T08:08:21;9.60;99.90
12254;DHT22;6189;52.526;13.390;2022-11-03T08:11:07;9.50;99.90
12254;DHT22;6189;52.526;13.390;2022-11-03T08:13:53;9.50;99.90
12254;DHT22;6189;52.526;13.390;2022-11-03T08:16:38;9.50;99.90
12254;DHT22;6189;52.526;13.390;2022-11-03T08:19:24;9.60;99.90
12254;DHT22;6189;52.526;13.390;2022-11-03T08:22:10;9.60;99.90
12254;DHT22;6189;52.526;13.390;2022-11-03T08:24:55;9.60;99.90
12254;DHT22;6189;52.526;13.390;2022-11-03T08:27:41;9.70;99.90
12254;DHT22;6189;52.526;13.390;2022-11-03T08:30:26;9.70;99.90
12254;DHT22;6189;52.526;13.390;2022-11-03T08:33:11;9.70;99.90
12254;DHT22;6189;52.526;13.390;2022-11-03T08:35:57;9.70;99.90
12254;DHT22;6189;52.526;13.390;2022-11-03T08:38:43;9.80;99.90
12254;DHT22;6189;52.526;13.390;2022-11-03T08:41:29;9.80;99.90
12254;DHT22;6189;52.526;13.390;2022-11-03T08:44:14;9.90;99.90
12254;DHT22;6189;52.526;13.390;2022-11-03T08:47:00;9.90;99.90
12254;DHT22;6189;52.526;13.390;2022-11-03T08:49:45;10.00;99.90
12254;DHT22;6189;52.526;13.390;2022-11-03T08:52:30;10.00;99.90
12254;DHT22;6189;52.526;13.390;2022-11-03T08:55:17;10.00;99.90
12254;DHT22;6189;52.526;13.390;2022-11-03T08:58:02;10.10;99.90
12254;DHT22;6189;52.526;13.390;2022-11-03T09:00:48;10.10;99.90
12254;DHT22;6189;52.526;13.390;2022-11-03T09:03:33;10.20;99.90
12254;DHT22;6189;52.526;13.390;2022-11-03T09:06:19;10.30;99.90
12254;DHT22;6189;52.526;13.390;2022-11-03T09:09:04;10.30;99.90
12254;DHT22;6189;52.526;13.390;2022-11-03T09:11:51;10.30;99.90
12254;DHT22;6189;52.526;13.390;2022-11-03T09:14:36;10.40;99.90
12254;DHT22;6189;52.526;13.390;2022-11-03T09:17:21;10.40;99.90
12254;DHT22;6189;52.526;13.390;2022-11-03T09:20:07;10.50;99.90
12254;DHT22;6189;52.526;13.390;2022-11-03T09:22:52;10.60;99.90
12254;DHT22;6189;52.526;13.390;2022-11-03T09:25:38;10.70;99.90
12254;DHT22;6189;52.526;13.390;2022-11-03T09:28:25;10.80;99.90
12254;DHT22;6189;52.526;13.390;2022-11-03T09:31:10;10.90;99.90
12254;DHT22;6189;52.526;13.390;2022-11-03T09:33:55;10.90;99.90
12254;DHT22;6189;52.526;13.390;2022-11-03T09:36:41;11.00;99.90
12254;DHT22;6189;52.526;13.390;2022-11-03T09:39:26;11.00;99.90
12254;DHT22;6189;52.526;13.390;2022-11-03T09:42:12;11.10;99.90
12254;DHT22;6189;52.526;13.390;2022-11-03T09:44:58;11.10;99.90
12254;DHT22;6189;52.526;13.390;2022-11-03T09:47:44;11.20;99.90
12254;DHT22;6189;52.526;13.390;2022-11-03T09:50:31;11.30;99.90
12254;DHT22;6189;52.526;13.390;2022-11-03T09:53:16;11.40;99.90
12254;DHT22;6189;52.526;13.390;2022-11-03T09:56:02;11.40;99.90
12254;DHT22;6189;52.526;13.390;2022-11-03T09:58:47;11.40;99.90
12254;DHT22;6189;52.526;13.390;2022-11-03T10:01:34;11.50;99.90
12254;DHT22;6189;52.526;13.390;2022-11-03T10:04:24;11.60;99.90
12254;DHT22;6189;52.526;13.390;2022-11-03T10:07:11;11.60;99.90
12254;DHT22;6189;52.526;13.390;2022-11-03T10:09:57;11.70;99.90
12254;DHT22;6189;52.526;13.390;2022-11-03T10:12:43;11.70;99.90
12254;DHT22;6189;52.526;13.390;2022-11-03T10:15:29;11.80;99.90
12254;DHT22;6189;52.526;13.390;2022-11-03T10:18:16;11.90;99.90
12254;DHT22;6189;52.526;13.390;2022-11-03T10:21:05;11.90;99.90
12254;DHT22;6189;52.526;13.390;2022-11-03T10:23:50;11.90;99.90
12254;DHT22;6189;52.526;13.390;2022-11-03T10:26:43;12.00;99.90
12254;DHT22;6189;52.526;13.390;2022-11-03T10:29:29;12.00;99.90
12254;DHT22;6189;52.526;13.390;2022-11-03T10:32:28;12.00;99.90
12254;DHT22;6189;52.526;13.390;2022-11-03T10:35:34;12.10;99.90
12254;DHT22;6189;52.526;13.390;2022-11-03T10:38:24;12.20;99.90
12254;DHT22;6189;52.526;13.390;2022-11-03T10:41:14;12.20;99.90
12254;DHT22;6189;52.526;13.390;2022-11-03T10:44:02;12.30;99.90
12254;DHT22;6189;52.526;13.390;2022-11-03T10:46:56;12.40;99.90
12254;DHT22;6189;52.526;13.390;2022-11-03T10:49:42;12.50;99.90
12254;DHT22;6189;52.526;13.390;2022-11-03T10:52:28;12.50;99.90
12254;DHT22;6189;52.526;13.390;2022-11-03T10:55:14;12.50;99.90
12254;DHT22;6189;52.526;13.390;2022-11-03T10:58:00;12.60;99.90
12254;DHT22;6189;52.526;13.390;2022-11-03T11:00:46;12.70;99.90
12254;DHT22;6189;52.526;13.390;2022-11-03T11:03:32;12.80;99.90
12254;DHT22;6189;52.526;13.390;2022-11-03T11:06:19;12.90;99.90
12254;DHT22;6189;52.526;13.390;2022-11-03T11:09:11;12.80;99.90
12254;DHT22;6189;52.526;13.390;2022-11-03T11:12:04;12.80;99.90
12254;DHT22;6189;52.526;13.390;2022-11-03T11:14:55;12.80;99.90
12254;DHT22;6189;52.526;13.390;2022-11-03T11:17:45;12.80;99.90
12254;DHT22;6189;52.526;13.390;2022-11-03T11:20:34;12.90;99.90
12254;DHT22;6189;52.526;13.390;2022-11-03T11:23:46;13.00;99.90
12254;DHT22;6189;52.526;13.390;2022-11-03T11:26:34;13.10;99.90
12254;DHT22;6189;52.526;13.390;2022-11-03T11:29:33;13.00;99.90
12254;DHT22;6189;52.526;13.390;2022-11-03T11:32:49;13.00;99.90
12254;DHT22;6189;52.526;13.390;2022-11-03T11:36:02;12.90;99.90
12254;DHT22;6189;52.526;13.390;2022-11-03T11:38:55;12.90;99.90
12254;DHT22;6189;52.526;13.390;2022-11-03T11:45:06;13.00;99.90
12254;DHT22;6189;52.526;13.390;2022-11-03T11:47:52;13.00;99.90
12254;DHT22;6189;52.526;13.390;2022-11-03T11:50:37;13.00;99.90
12254;DHT22;6189;52.526;13.390;2022-11-03T11:53:23;13.00;99.90
12254;DHT22;6189;52.526;13.390;2022-11-03T11:56:11;13.00;99.90
12254;DHT22;6189;52.526;13.390;2022-11-03T11:58:57;13.00;99.90
12254;DHT22;6189;52.526;13.390;2022-11-03T12:01:48;13.10;99.90
12254;DHT22;6189;52.526;13.390;2022-11-03T12:04:35;13.00;99.90
12254;DHT22;6189;52.526;13.390;2022-11-03T12:07:31;13.10;99.90
12254;DHT22;6189;52.526;13.390;2022-11-03T12:10:18;13.10;99.90
12254;DHT22;6189;52.526;13.390;2022-11-03T12:13:33;13.10;99.90
12254;DHT22;6189;52.526;13.390;2022-11-03T12:16:29;13.10;99.90
12254;DHT22;6189;52.526;13.390;2022-11-03T12:19:35;13.10;99.90
12254;DHT22;6189;52.526;13.390;2022-11-03T12:22:40;13.00;99.90
12254;DHT22;6189;52.526;13.390;2022-11-03T12:25:33;13.00;99.90
12254;DHT22;6189;52.526;13.390;2022-11-03T12:28:30;13.00;99.90
12254;DHT22;6189;52.526;13.390;2022-11-03T12:31:15;13.10;99.90
12254;DHT22;6189;52.526;13.390;2022-11-03T12:34:00;13.20;99.90
12254;DHT22;6189;52.526;13.390;2022-11-03T12:36:47;13.20;99.90
12254;DHT22;6189;52.526;13.390;2022-11-03T12:39:33;13.20;99.90
12254;DHT22;6189;52.526;13.390;2022-11-03T12:42:18;13.30;99.90
12254;DHT22;6189;52.526;13.390;2022-11-03T12:45:05;13.30;99.90
12254;DHT22;6189;52.526;13.390;2022-11-03T12:47:51;13.20;99.90
12254;DHT22;6189;52.526;13.390;2022-11-03T12:50:37;13.30;99.90
12254;DHT22;6189;52.526;13.390;2022-11-03T12:53:24;13.20;99.90
12254;DHT22;6189;52.526;13.390;2022-11-03T12:56:10;13.30;99.90
12254;DHT22;6189;52.526;13.390;2022-11-03T12:58:55;13.30;99.90
12254;DHT22;6189;52.526;13.390;2022-11-03T13:01:41;13.40;99.90
12254;DHT22;6189;52.526;13.390;2022-11-03T13:04:26;13.30;99.90
12254;DHT22;6189;52.526;13.390;2022-11-03T13:07:11;13.50;99.90
12254;DHT22;6189;52.526;13.390;2022-11-03T13:09:58;13.40;99.90
12254;DHT22;6189;52.526;13.390;2022-11-03T13:12:43;13.40;99.90
12254;DHT22;6189;52.526;13.390;2022-11-03T13:15:28;13.40;99.90
12254;DHT22;6189;52.526;13.390;2022-11-03T13:18:13;13.60;99.90
12254;DHT22;6189;52.526;13.390;2022-11-03T13:20:59;13.60;99.90
12254;DHT22;6189;52.526;13.390;2022-11-03T13:23:44;13.60;99.90
12254;DHT22;6189;52.526;13.390;2022-11-03T13:26:31;13.60;99.90
12254;DHT22;6189;52.526;13.390;2022-11-03T13:29:17;13.70;99.90
12254;DHT22;6189;52.526;13.390;2022-11-03T13:32:03;13.70;99.90
12254;DHT22;6189;52.526;13.390;2022-11-03T13:34:48;13.60;99.90
12254;DHT22;6189;52.526;13.390;2022-11-03T13:37:34;13.60;99.90
12254;DHT22;6189;52.526;13.390;2022-11-03T13:40:19;13.70;99.90
12254;DHT22;6189;52.526;13.390;2022-11-03T13:43:06;13.60;99.90
12254;DHT22;6189;52.526;13.390;2022-11-03T13:45:51;13.70;99.90
12254;DHT22;6189;52.526;13.390;2022-11-03T13:48:37;13.70;99.90
12254;DHT22;6189;52.526;13.390;2022-11-03T13:51:22;13.70;99.90
12254;DHT22;6189;52.526;13.390;2022-11-03T13:54:07;13.60;99.90
12254;DHT22;6189;52.526;13.390;2022-11-03T13:56:52;13.70;99.90
12254;DHT22;6189;52.526;13.390;2022-11-03T13:59:40;13.70;99.90
12254;DHT22;6189;52.526;13.390;2022-11-03T14:02:26;13.60;99.90
12254;DHT22;6189;52.526;13.390;2022-11-03T14:05:12;13.60;99.90
12254;DHT22;6189;52.526;13.390;2022-11-03T14:07:58;13.70;99.90
12254;DHT22;6189;52.526;13.390;2022-11-03T14:10:43;13.70;99.90
12254;DHT22;6189;52.526;13.390;2022-11-03T14:13:29;13.70;99.90
12254;DHT22;6189;52.526;13.390;2022-11-03T14:16:14;13.70;99.90
12254;DHT22;6189;52.526;13.390;2022-11-03T14:18:59;13.70;99.90
12254;DHT22;6189;52.526;13.390;2022-11-03T14:21:45;13.70;99.90
12254;DHT22;6189;52.526;13.390;2022-11-03T14:24:30;13.60;99.90
12254;DHT22;6189;52.526;13.390;2022-11-03T14:27:16;13.60;99.90
12254;DHT22;6189;52.526;13.390;2022-11-03T14:30:01;13.60;99.90
12254;DHT22;6189;52.526;13.390;2022-11-03T14:32:48;13.60;99.90
12254;DHT22;6189;52.526;13.390;2022-11-03T14:35:33;13.60;99.90
12254;DHT22;6189;52.526;13.390;2022-11-03T14:38:18;13.60;99.90
12254;DHT22;6189;52.526;13.390;2022-11-03T14:41:04;13.50;99.90
12254;DHT22;6189;52.526;13.390;2022-11-03T14:44:07;13.50;99.90
12254;DHT22;6189;52.526;13.390;2022-11-03T14:46:52;13.50;99.90
12254;DHT22;6189;52.526;13.390;2022-11-03T14:49:39;13.40;99.90
12254;DHT22;6189;52.526;13.390;2022-11-03T14:52:25;13.40;99.90
12254;DHT22;6189;52.526;13.390;2022-11-03T14:55:10;13.40;99.90
12254;DHT22;6189;52.526;13.390;2022-11-03T14:57:56;13.30;99.90
12254;DHT22;6189;52.526;13.390;2022-11-03T15:00:41;13.30;99.90
12254;DHT22;6189;52.526;13.390;2022-11-03T15:03:26;13.30;99.90
12254;DHT22;6189;52.526;13.390;2022-11-03T15:06:13;13.30;99.90
12254;DHT22;6189;52.526;13.390;2022-11-03T15:08:59;13.30;99.90
12254;DHT22;6189;52.526;13.390;2022-11-03T15:11:45;13.30;99.90
12254;DHT22;6189;52.526;13.390;2022-11-03T15:14:30;13.30;99.90
12254;DHT22;6189;52.526;13.390;2022-11-03T15:17:15;13.30;99.90
12254;DHT22;6189;52.526;13.390;2022-11-03T15:20:01;13.30;99.90
12254;DHT22;6189;52.526;13.390;2022-11-03T15:22:48;13.30;99.90
12254;DHT22;6189;52.526;13.390;2022-11-03T15:25:33;13.30;99.90
12254;DHT22;6189;52.526;13.390;2022-11-03T15:28:19;13.20;99.90
12254;DHT22;6189;52.526;13.390;2022-11-03T15:31:05;13.20;99.90
12254;DHT22;6189;52.526;13.390;2022-11-03T15:33:50;13.20;99.90
12254;DHT22;6189;52.526;13.390;2022-11-03T15:36:36;13.20;99.90
12254;DHT22;6189;52.526;13.390;2022-11-03T15:39:22;13.20;99.90
12254;DHT22;6189;52.526;13.390;2022-11-03T15:42:07;13.10;99.90
12254;DHT22;6189;52.526;13.390;2022-11-03T15:44:53;13.10;99.90
12254;DHT22;6189;52.526;13.390;2022-11-03T15:47:38;13.10;99.90
12254;DHT22;6189;52.526;13.390;2022-11-03T15:50:24;13.10;99.90
12254;DHT22;6189;52.526;13.390;2022-11-03T15:53:09;13.10;99.90
12254;DHT22;6189;52.526;13.390;2022-11-03T15:55:56;12.90;99.90
12254;DHT22;6189;52.526;13.390;2022-11-03T15:58:41;12.90;99.90
12254;DHT22;6189;52.526;13.390;2022-11-03T16:01:27;12.80;99.90
12254;DHT22;6189;52.526;13.390;2022-11-03T16:04:12;12.70;99.90
12254;DHT22;6189;52.526;13.390;2022-11-03T16:06:59;12.80;99.90
12254;DHT22;6189;52.526;13.390;2022-11-03T16:09:44;12.70;99.90
12254;DHT22;6189;52.526;13.390;2022-11-03T16:12:31;12.70;99.90
12254;DHT22;6189;52.526;13.390;2022-11-03T16:15:19;12.70;99.90
12254;DHT22;6189;52.526;13.390;2022-11-03T16:18:04;12.60;99.90
12254;DHT22;6189;52.526;13.390;2022-11-03T16:20:49;12.60;99.90
12254;DHT22;6189;52.526;13.390;2022-11-03T16:23:35;12.50;99.90
12254;DHT22;6189;52.526;13.390;2022-11-03T16:26:20;12.60;99.90
12254;DHT22;6189;52.526;13.390;2022-11-03T16:29:08;12.50;99.90
12254;DHT22;6189;52.526;13.390;2022-11-03T16:31:54;12.50;99.90
12254;DHT22;6189;52.526;13.390;2022-11-03T16:34:39;12.50;99.90
12254;DHT22;6189;52.526;13.390;2022-11-03T16:37:24;12.50;99.90
12254;DHT22;6189;52.526;13.390;2022-11-03T16:40:12;12.50;99.90
12254;DHT22;6189;52.526;13.390;2022-11-03T16:42:57;12.40;99.90
12254;DHT22;6189;52.526;13.390;2022-11-03T16:45:44;12.40;99.90
12254;DHT22;6189;52.526;13.390;2022-11-03T16:48:30;12.40;99.90
12254;DHT22;6189;52.526;13.390;2022-11-03T16:51:15;12.40;99.90
12254;DHT22;6189;52.526;13.390;2022-11-03T16:54:00;12.40;99.90
12254;DHT22;6189;52.526;13.390;2022-11-03T16:56:46;12.40;99.90
12254;DHT22;6189;52.526;13.390;2022-11-03T16:59:31;12.30;99.90
12254;DHT22;6189;52.526;13.390;2022-11-03T17:02:18;12.30;99.90
12254;DHT22;6189;52.526;13.390;2022-11-03T17:05:03;12.20;99.90
12254;DHT22;6189;52.526;13.390;2022-11-03T17:07:49;12.10;99.90
12254;DHT22;6189;52.526;13.390;2022-11-03T17:10:34;12.10;99.90
12254;DHT22;6189;52.526;13.390;2022-11-03T17:13:20;12.10;99.90
12254;DHT22;6189;52.526;13.390;2022-11-03T17:16:05;12.10;99.90
12254;DHT22;6189;52.526;13.390;2022-11-03T17:18:52;12.20;99.90
12254;DHT22;6189;52.526;13.390;2022-11-03T17:21:37;12.20;99.90
12254;DHT22;6189;52.526;13.390;2022-11-03T17:24:23;12.20;99.90
12254;DHT22;6189;52.526;13.390;2022-11-03T17:27:12;12.30;99.90
12254;DHT22;6189;52.526;13.390;2022-11-03T17:30:00;12.30;99.90
12254;DHT22;6189;52.526;13.390;2022-11-03T17:32:49;12.30;99.90
12254;DHT22;6189;52.526;13.390;2022-11-03T17:35:38;12.20;99.90
12254;DHT22;6189;52.526;13.390;2022-11-03T17:38:25;12.20;99.90
12254;DHT22;6189;52.526;13.390;2022-11-03T17:41:11;12.20;99.90
12254;DHT22;6189;52.526;13.390;2022-11-03T17:43:57;12.20;99.90
12254;DHT22;6189;52.526;13.390;2022-11-03T17:46:42;12.10;99.90
12254;DHT22;6189;52.526;13.390;2022-11-03T17:49:27;12.10;99.90
12254;DHT22;6189;52.526;13.390;2022-11-03T17:52:17;12.20;99.90
12254;DHT22;6189;52.526;13.390;2022-11-03T17:55:05;12.30;99.90